createdAt,value
2022-08-31T00:01:01.542Z,12.84
2022-08-31T00:03:46.914Z,12.83
2022-08-31T00:06:13.588Z,12.84
2022-08-31T00:08:40.214Z,12.85
2022-08-31T00:11:09.978Z,12.84
2022-08-31T00:13:36.850Z,12.83
2022-08-31T00:16:04.378Z,12.80
2022-08-31T00:18:31.214Z,12.78
2022-08-31T00:20:58.114Z,12.77
2022-08-31T00:23:25.341Z,12.76
2022-08-31T00:25:52.667Z,12.75
2022-08-31T00:28:22.755Z,12.74
2022-08-31T00:30:49.757Z,12.72
2022-08-31T00:33:16.796Z,12.71
2022-08-31T00:35:49.577Z,12.71
2022-08-31T00:38:16.476Z,12.69
2022-08-31T00:40:45.921Z,12.66
2022-08-31T00:43:33.352Z,12.65
2022-08-31T00:46:00.173Z,12.65
2022-08-31T00:48:27.213Z,12.63
2022-08-31T00:50:53.919Z,12.61
2022-08-31T00:53:20.690Z,12.60
2022-08-31T00:55:47.563Z,12.60
2022-08-31T00:58:14.265Z,12.60
2022-08-31T01:00:46.473Z,12.57
2022-08-31T01:03:13.343Z,12.52
2022-08-31T01:05:40.546Z,12.44
2022-08-31T01:08:10.490Z,12.42
2022-08-31T01:10:43.871Z,12.42
2022-08-31T01:13:13.037Z,12.39
2022-08-31T01:15:45.852Z,12.37
2022-08-31T01:18:12.874Z,12.36
2022-08-31T01:20:52.174Z,12.35
2022-08-31T01:23:34.900Z,12.37
2022-08-31T01:26:03.660Z,12.37
2022-08-31T01:28:30.341Z,12.36
2022-08-31T01:31:21.249Z,12.33
2022-08-31T01:33:48.593Z,12.33
2022-08-31T01:36:16.471Z,12.33
2022-08-31T01:38:44.207Z,12.31
2022-08-31T01:41:13.711Z,12.27
2022-08-31T01:43:41.425Z,12.26
2022-08-31T01:46:12.733Z,12.25
2022-08-31T01:48:42.576Z,12.25
2022-08-31T01:51:12.776Z,12.22
2022-08-31T01:53:41.347Z,12.19
2022-08-31T01:56:17.772Z,12.14
2022-08-31T01:58:45.246Z,12.12
2022-08-31T02:01:32.919Z,12.11
2022-08-31T02:03:59.620Z,12.08
2022-08-31T02:06:26.723Z,12.07
2022-08-31T02:08:53.742Z,12.07
2022-08-31T02:11:20.395Z,12.03
2022-08-31T02:13:47.073Z,12.02
2022-08-31T02:16:14.014Z,12.02
2022-08-31T02:18:40.776Z,12.00
2022-08-31T02:21:07.466Z,11.97
2022-08-31T02:23:34.263Z,11.95
2022-08-31T02:26:01.094Z,11.91
2022-08-31T02:28:27.731Z,11.88
2022-08-31T02:30:54.407Z,11.89
2022-08-31T02:33:21.199Z,11.90
2022-08-31T02:35:51.760Z,11.90
2022-08-31T02:38:23.010Z,11.87
2022-08-31T02:40:51.404Z,11.85
2022-08-31T02:43:24.765Z,11.82
2022-08-31T02:45:52.283Z,11.79
2022-08-31T02:48:20.904Z,11.76
2022-08-31T02:50:50.878Z,11.75
2022-08-31T02:53:20.202Z,11.73
2022-08-31T02:55:47.014Z,11.74
2022-08-31T02:58:14.726Z,11.76
2022-08-31T03:00:45.918Z,11.77
2022-08-31T03:03:13.254Z,11.76
2022-08-31T03:05:40.628Z,11.74
2022-08-31T03:08:07.756Z,11.71
2022-08-31T03:10:34.669Z,11.70
2022-08-31T03:13:01.690Z,11.68
2022-08-31T03:15:29.073Z,11.65
2022-08-31T03:17:56.389Z,11.63
2022-08-31T03:20:24.990Z,11.61
2022-08-31T03:22:51.701Z,11.60
2022-08-31T03:25:19.962Z,11.58
2022-08-31T03:27:46.907Z,11.56
2022-08-31T03:30:16.898Z,11.55
2022-08-31T03:32:45.639Z,11.55
2022-08-31T03:35:13.033Z,11.55
2022-08-31T03:37:39.694Z,11.55
2022-08-31T03:40:08.154Z,11.53
2022-08-31T03:42:35.279Z,11.45
2022-08-31T03:45:01.937Z,11.42
2022-08-31T03:47:28.871Z,11.41
2022-08-31T03:49:55.682Z,11.37
2022-08-31T03:52:22.487Z,11.28
2022-08-31T03:54:49.391Z,11.18
2022-08-31T03:57:16.081Z,11.08
2022-08-31T03:59:45.766Z,11.01
2022-08-31T04:02:12.509Z,10.96
2022-08-31T04:04:39.134Z,10.91
2022-08-31T04:07:05.764Z,10.88
2022-08-31T04:09:33.644Z,10.79
2022-08-31T04:12:00.282Z,10.71
2022-08-31T04:14:26.935Z,10.66
2022-08-31T04:16:53.673Z,10.61
2022-08-31T04:19:20.314Z,10.58
2022-08-31T04:21:47.746Z,10.55
2022-08-31T04:24:14.487Z,10.52
2022-08-31T04:26:41.522Z,10.52
2022-08-31T04:29:13.269Z,10.53
2022-08-31T04:31:40.758Z,10.55
2022-08-31T04:34:07.520Z,10.55
2022-08-31T04:36:34.329Z,10.58
2022-08-31T04:39:03.368Z,10.59
2022-08-31T04:41:36.923Z,10.60
2022-08-31T04:44:04.622Z,10.63
2022-08-31T04:46:37.709Z,10.65
2022-08-31T04:49:04.824Z,10.66
2022-08-31T04:51:35.566Z,10.66
2022-08-31T04:54:09.364Z,10.67
2022-08-31T04:56:40.059Z,10.72
2022-08-31T04:59:09.494Z,10.77
2022-08-31T05:01:45.807Z,10.81
2022-08-31T05:04:17.293Z,10.86
2022-08-31T05:06:46.687Z,10.91
2022-08-31T05:09:17.222Z,10.95
2022-08-31T05:11:44.759Z,10.95
2022-08-31T05:14:11.981Z,10.95
2022-08-31T05:16:40.472Z,10.96
2022-08-31T05:19:10.198Z,10.98
2022-08-31T05:21:42.133Z,11.01
2022-08-31T05:24:14.421Z,11.03
2022-08-31T05:26:48.333Z,11.07
2022-08-31T05:29:17.997Z,11.12
2022-08-31T05:31:52.234Z,11.22
2022-08-31T05:34:21.717Z,11.29
2022-08-31T05:36:54.223Z,11.32
2022-08-31T05:39:22.417Z,11.38
2022-08-31T05:41:49.314Z,11.47
2022-08-31T05:44:17.192Z,11.56
2022-08-31T05:46:44.939Z,11.65
2022-08-31T05:49:19.639Z,11.72
2022-08-31T05:51:46.299Z,11.75
2022-08-31T05:54:14.919Z,11.78
2022-08-31T05:56:41.830Z,11.76
2022-08-31T05:59:09.791Z,11.74
2022-08-31T06:01:44.793Z,11.76
2022-08-31T06:04:12.422Z,11.80
2022-08-31T06:06:39.480Z,11.90
2022-08-31T06:09:08.267Z,11.99
2022-08-31T06:11:35.189Z,12.09
2022-08-31T06:14:04.424Z,12.17
2022-08-31T06:16:32.343Z,12.25
2022-08-31T06:19:03.540Z,12.28
2022-08-31T06:21:36.023Z,12.35
2022-08-31T06:24:04.546Z,12.36
2022-08-31T06:26:34.118Z,12.37
2022-08-31T06:29:03.042Z,12.44
2022-08-31T06:31:37.457Z,12.49
2022-08-31T06:34:06.578Z,12.57
2022-08-31T06:36:34.402Z,12.65
2022-08-31T06:39:02.640Z,12.71
2022-08-31T06:41:36.625Z,12.73
2022-08-31T06:44:07.867Z,12.77
2022-08-31T06:46:36.457Z,12.83
2022-08-31T06:49:03.691Z,12.87
2022-08-31T06:51:36.553Z,12.92
2022-08-31T06:54:21.762Z,12.90
2022-08-31T06:56:53.810Z,12.91
2022-08-31T06:59:21.036Z,12.94
2022-08-31T07:01:49.285Z,12.99
2022-08-31T07:04:16.015Z,13.06
2022-08-31T07:06:44.483Z,13.09
2022-08-31T07:09:16.032Z,13.16
2022-08-31T07:11:45.294Z,13.26
2022-08-31T07:14:14.265Z,13.34
2022-08-31T07:16:42.291Z,13.42
2022-08-31T07:19:09.508Z,13.51
2022-08-31T07:21:43.884Z,13.64
2022-08-31T07:24:12.659Z,13.72
2022-08-31T07:26:41.958Z,13.79
2022-08-31T07:29:10.094Z,13.86
2022-08-31T07:31:44.755Z,13.91
2022-08-31T07:34:15.950Z,13.98
2022-08-31T07:37:02.178Z,14.05
2022-08-31T07:39:48.824Z,14.11
2022-08-31T07:42:19.127Z,14.18
2022-08-31T07:44:53.388Z,14.25
2022-08-31T07:47:22.570Z,14.32
2022-08-31T07:49:52.677Z,14.41
2022-08-31T07:52:23.901Z,14.50
2022-08-31T07:55:07.777Z,14.59
2022-08-31T07:57:44.252Z,14.69
2022-08-31T08:00:26.630Z,14.82
2022-08-31T08:02:54.133Z,14.93
2022-08-31T08:05:27.330Z,15.07
2022-08-31T08:08:08.431Z,15.09
2022-08-31T08:10:43.655Z,15.15
2022-08-31T08:13:16.127Z,15.44
2022-08-31T08:15:42.858Z,16.09
2022-08-31T08:18:12.203Z,17.07
2022-08-31T08:20:39.652Z,17.52
2022-08-31T08:23:13.997Z,17.90
2022-08-31T08:25:45.152Z,18.51
2022-08-31T08:28:38.609Z,18.72
2022-08-31T08:31:11.210Z,19.21
2022-08-31T08:33:37.957Z,20.11
2022-08-31T08:36:10.191Z,20.12
2022-08-31T08:38:40.189Z,19.69
2022-08-31T08:41:35.686Z,19.25
2022-08-31T08:44:05.308Z,19.30
2022-08-31T08:46:47.986Z,18.99
2022-08-31T08:49:29.169Z,19.40
2022-08-31T08:52:03.379Z,20.47
2022-08-31T08:54:34.730Z,21.17
2022-08-31T08:57:14.342Z,20.55
2022-08-31T08:59:43.523Z,20.13
2022-08-31T09:02:20.257Z,19.74
2022-08-31T09:05:17.991Z,19.29
2022-08-31T09:07:59.906Z,18.94
2022-08-31T09:11:18.688Z,18.37
2022-08-31T09:14:23.894Z,18.12
2022-08-31T09:17:29.108Z,17.90
2022-08-31T09:20:00.436Z,17.80
2022-08-31T09:22:47.169Z,18.05
2022-08-31T09:25:16.622Z,18.85
2022-08-31T09:27:57.680Z,19.64
2022-08-31T09:30:33.184Z,19.63
2022-08-31T09:33:00.386Z,19.38
2022-08-31T09:35:41.425Z,19.79
2022-08-31T09:38:31.486Z,20.45
2022-08-31T09:41:10.297Z,21.08
2022-08-31T09:43:38.605Z,21.60
2022-08-31T09:46:11.917Z,21.45
2022-08-31T09:48:55.058Z,20.95
2022-08-31T09:51:34.444Z,20.94
2022-08-31T09:54:36.911Z,20.66
2022-08-31T09:57:06.746Z,20.18
2022-08-31T09:59:41.975Z,19.89
2022-08-31T10:02:23.057Z,19.41
2022-08-31T10:04:57.302Z,18.72
2022-08-31T10:07:43.271Z,18.19
2022-08-31T10:10:30.296Z,18.05
2022-08-31T10:13:16.019Z,17.94
2022-08-31T10:16:23.200Z,17.63
2022-08-31T10:19:04.547Z,17.67
2022-08-31T10:21:40.635Z,17.75
2022-08-31T10:24:33.606Z,17.83
2022-08-31T10:27:14.910Z,17.83
2022-08-31T10:29:56.190Z,17.66
2022-08-31T10:32:46.091Z,17.58
2022-08-31T10:35:19.583Z,17.40
2022-08-31T10:38:08.331Z,17.41
2022-08-31T10:40:44.889Z,17.49
2022-08-31T10:43:23.961Z,17.51
2022-08-31T10:45:53.398Z,17.49
2022-08-31T10:48:24.724Z,17.45
2022-08-31T10:51:05.812Z,17.47
2022-08-31T10:53:52.314Z,17.71
2022-08-31T10:56:25.794Z,17.96
2022-08-31T10:59:08.708Z,18.13
2022-08-31T11:01:46.727Z,18.05
2022-08-31T11:04:32.000Z,17.91
2022-08-31T11:07:29.868Z,17.81
2022-08-31T11:10:19.949Z,17.80
2022-08-31T11:12:57.724Z,17.93
2022-08-31T11:15:46.087Z,17.96
2022-08-31T11:18:40.042Z,17.96
2022-08-31T11:21:22.048Z,17.95
2022-08-31T11:24:17.643Z,17.98
2022-08-31T11:26:55.074Z,17.98
2022-08-31T11:29:43.274Z,17.89
2022-08-31T11:32:34.297Z,17.78
2022-08-31T11:35:08.333Z,17.75
2022-08-31T11:37:56.078Z,17.78
2022-08-31T11:40:46.752Z,17.73
2022-08-31T11:43:31.491Z,17.71
2022-08-31T11:46:19.852Z,17.72
2022-08-31T11:48:55.596Z,17.65
2022-08-31T11:51:44.875Z,17.57
2022-08-31T11:54:42.007Z,17.57
2022-08-31T11:57:16.022Z,17.62
2022-08-31T11:59:47.681Z,17.70
2022-08-31T12:02:20.102Z,17.90
2022-08-31T12:04:47.567Z,18.10
2022-08-31T12:07:16.987Z,18.21
2022-08-31T12:10:17.861Z,18.16
2022-08-31T12:13:03.881Z,18.00
2022-08-31T12:15:36.230Z,17.88
2022-08-31T12:18:34.828Z,17.89
2022-08-31T12:21:20.154Z,18.01
2022-08-31T12:24:18.605Z,17.96
2022-08-31T12:27:11.675Z,17.95
2022-08-31T12:29:40.560Z,17.87
2022-08-31T12:32:28.973Z,17.68
2022-08-31T12:35:03.976Z,17.40
2022-08-31T12:37:33.234Z,17.16
2022-08-31T12:40:10.984Z,16.96
2022-08-31T12:42:52.095Z,16.84
2022-08-31T12:45:21.659Z,17.00
2022-08-31T12:48:17.086Z,17.21
2022-08-31T12:50:52.076Z,17.42
2022-08-31T12:53:18.811Z,17.48
2022-08-31T12:55:48.618Z,17.59
2022-08-31T12:58:32.773Z,17.66
2022-08-31T13:01:09.590Z,17.68
2022-08-31T13:03:39.607Z,17.59
2022-08-31T13:06:15.298Z,17.57
2022-08-31T13:08:42.057Z,17.67
2022-08-31T13:11:35.040Z,17.77
2022-08-31T13:14:24.740Z,17.69
2022-08-31T13:16:53.474Z,17.63
2022-08-31T13:19:29.587Z,17.70
2022-08-31T13:21:59.530Z,17.79
2022-08-31T13:24:34.090Z,17.87
2022-08-31T13:27:18.616Z,17.91
2022-08-31T13:29:46.138Z,17.79
2022-08-31T13:32:35.186Z,17.68
2022-08-31T13:35:10.625Z,17.50
2022-08-31T13:37:42.128Z,17.48
2022-08-31T13:40:12.839Z,17.44
2022-08-31T13:42:45.738Z,17.35
2022-08-31T13:45:26.745Z,17.20
2022-08-31T13:47:58.201Z,17.05
2022-08-31T13:50:33.395Z,17.07
2022-08-31T13:53:25.936Z,17.09
2022-08-31T13:55:50.518Z,17.00
2022-08-31T13:58:32.294Z,17.05
2022-08-31T14:01:25.227Z,17.01
2022-08-31T14:03:58.251Z,17.01
2022-08-31T14:06:31.051Z,17.07
2022-08-31T14:09:05.209Z,17.11
2022-08-31T14:11:33.858Z,17.11
2022-08-31T14:14:09.962Z,17.14
2022-08-31T14:16:51.905Z,17.16
2022-08-31T14:19:38.886Z,17.23
2022-08-31T14:22:27.307Z,17.29
2022-08-31T14:24:57.019Z,17.35
2022-08-31T14:27:24.177Z,17.32
2022-08-31T14:29:52.362Z,17.32
2022-08-31T14:32:22.089Z,17.24
2022-08-31T14:34:49.467Z,17.14
2022-08-31T14:37:22.411Z,17.04
2022-08-31T14:39:51.930Z,16.98
2022-08-31T14:42:25.715Z,16.96
2022-08-31T14:45:00.815Z,16.99
2022-08-31T14:47:29.993Z,17.01
2022-08-31T14:50:05.399Z,17.09
2022-08-31T14:52:34.782Z,17.17
2022-08-31T14:55:02.635Z,17.29
2022-08-31T14:57:32.944Z,17.36
2022-08-31T15:00:02.168Z,17.40
2022-08-31T15:02:33.440Z,17.39
2022-08-31T15:05:06.568Z,17.40
2022-08-31T15:07:36.358Z,17.43
2022-08-31T15:10:06.840Z,17.53
2022-08-31T15:12:34.534Z,17.59
2022-08-31T15:15:01.474Z,17.60
2022-08-31T15:17:30.408Z,17.58
2022-08-31T15:19:57.432Z,17.53
2022-08-31T15:22:26.446Z,17.43
2022-08-31T15:24:57.074Z,17.39
2022-08-31T15:27:28.733Z,17.37
2022-08-31T15:30:01.417Z,17.37
2022-08-31T15:32:28.216Z,17.37
2022-08-31T15:34:58.205Z,17.38
2022-08-31T15:37:30.768Z,17.40
2022-08-31T15:40:00.899Z,17.41
2022-08-31T15:42:29.744Z,17.38
2022-08-31T15:45:01.117Z,17.34
2022-08-31T15:47:52.939Z,17.33
2022-08-31T15:50:47.334Z,17.29
2022-08-31T15:53:14.039Z,17.27
2022-08-31T15:55:41.240Z,17.24
2022-08-31T15:58:09.540Z,17.17
2022-08-31T16:00:37.400Z,17.13
2022-08-31T16:03:06.089Z,17.16
2022-08-31T16:05:35.859Z,17.16
2022-08-31T16:08:17.634Z,17.15
2022-08-31T16:10:48.009Z,17.13
2022-08-31T16:13:16.238Z,17.11
2022-08-31T16:15:50.552Z,17.07
2022-08-31T16:18:28.595Z,16.99
2022-08-31T16:20:55.988Z,16.93
2022-08-31T16:23:27.119Z,16.88
2022-08-31T16:25:54.072Z,16.84
2022-08-31T16:28:23.108Z,16.80
2022-08-31T16:30:52.435Z,16.78
2022-08-31T16:33:20.202Z,16.75
2022-08-31T16:35:47.861Z,16.71
2022-08-31T16:38:14.759Z,16.67
2022-08-31T16:40:48.856Z,16.63
2022-08-31T16:43:15.680Z,16.57
2022-08-31T16:45:42.529Z,16.51
2022-08-31T16:48:29.487Z,16.45
2022-08-31T16:51:01.947Z,16.39
2022-08-31T16:53:28.891Z,16.32
2022-08-31T16:55:58.948Z,16.24
2022-08-31T17:01:28.688Z,16.09
2022-08-31T17:04:04.818Z,15.97
2022-08-31T17:06:35.126Z,15.86
2022-08-31T17:09:08.462Z,15.75
2022-08-31T17:11:40.142Z,15.69
2022-08-31T17:14:11.137Z,15.64
2022-08-31T17:16:40.801Z,15.59
2022-08-31T17:19:13.426Z,15.52
2022-08-31T17:21:51.602Z,15.45
2022-08-31T17:24:25.923Z,15.34
2022-08-31T17:27:02.340Z,15.30
2022-08-31T17:29:43.776Z,15.28
2022-08-31T17:32:12.470Z,15.21
2022-08-31T17:34:41.815Z,15.17
2022-08-31T17:37:13.137Z,15.14
2022-08-31T17:39:44.419Z,15.08
2022-08-31T17:42:15.245Z,15.02
2022-08-31T17:44:44.946Z,14.96
2022-08-31T17:47:11.793Z,14.90
2022-08-31T17:49:43.230Z,14.83
2022-08-31T17:52:12.745Z,14.78
2022-08-31T17:54:42.153Z,14.75
2022-08-31T17:57:12.024Z,14.73
2022-08-31T17:59:41.343Z,14.71
2022-08-31T18:02:11.388Z,14.68
2022-08-31T18:04:39.248Z,14.60
2022-08-31T18:07:07.284Z,14.54
2022-08-31T18:09:37.520Z,14.54
2022-08-31T18:12:06.252Z,14.50
2022-08-31T18:14:34.645Z,14.49
2022-08-31T18:17:03.878Z,14.45
2022-08-31T18:19:33.115Z,14.45
2022-08-31T18:22:00.946Z,14.42
2022-08-31T18:24:27.774Z,14.41
2022-08-31T18:26:56.822Z,14.37
2022-08-31T18:29:24.861Z,14.34
2022-08-31T18:31:57.153Z,14.33
2022-08-31T18:34:25.279Z,14.29
2022-08-31T18:36:55.191Z,14.22
2022-08-31T18:39:50.018Z,14.14
2022-08-31T18:42:32.391Z,14.09
2022-08-31T18:45:19.533Z,14.07
2022-08-31T18:48:23.252Z,14.03
2022-08-31T18:50:45.662Z,13.98
2022-08-31T18:53:15.447Z,13.91
2022-08-31T18:55:53.508Z,13.87
2022-08-31T18:58:20.228Z,13.84
2022-08-31T19:00:56.124Z,13.78
2022-08-31T19:03:23.038Z,13.78
2022-08-31T19:05:49.671Z,13.77
2022-08-31T19:08:16.507Z,13.75
2022-08-31T19:10:43.183Z,13.73
2022-08-31T19:13:09.890Z,13.72
2022-08-31T19:15:40.574Z,13.70
2022-08-31T19:18:33.405Z,13.68
2022-08-31T19:21:10.654Z,13.68
2022-08-31T19:23:37.274Z,13.67
2022-08-31T19:26:03.922Z,13.65
2022-08-31T19:28:30.554Z,13.63
2022-08-31T19:30:57.225Z,13.57
2022-08-31T19:33:26.957Z,13.55
2022-08-31T19:36:04.780Z,13.51
2022-08-31T19:38:31.622Z,13.49
2022-08-31T19:40:59.431Z,13.45
2022-08-31T19:43:44.921Z,13.39
2022-08-31T19:46:25.227Z,13.29
2022-08-31T19:48:52.693Z,13.26
2022-08-31T19:51:25.870Z,13.22
2022-08-31T19:53:54.983Z,13.12
2022-08-31T19:59:18.185Z,13.04
2022-08-31T20:01:47.855Z,13.04
2022-08-31T20:04:17.055Z,13.04
2022-08-31T20:06:45.707Z,13.01
2022-08-31T20:09:13.250Z,12.93
2022-08-31T20:14:23.655Z,12.87
2022-08-31T20:16:51.364Z,12.81
2022-08-31T20:19:24.939Z,12.83
2022-08-31T20:21:54.041Z,12.85
2022-08-31T20:24:26.799Z,12.83
2022-08-31T20:26:55.592Z,12.81
2022-08-31T20:29:23.873Z,12.79
2022-08-31T20:31:52.432Z,12.78
2022-08-31T20:34:22.123Z,12.79
2022-08-31T20:36:52.331Z,12.76
2022-08-31T20:39:20.153Z,12.73
2022-08-31T20:41:50.821Z,12.70
2022-08-31T20:44:25.594Z,12.64
2022-08-31T20:47:14.280Z,12.56
2022-08-31T20:50:02.827Z,12.51
2022-08-31T20:52:35.082Z,12.48
2022-08-31T20:55:04.935Z,12.45
2022-08-31T20:57:33.335Z,12.44
2022-08-31T21:00:05.657Z,12.45
2022-08-31T21:02:37.383Z,12.42
2022-08-31T21:05:36.400Z,12.30
2022-08-31T21:07:57.625Z,12.16
2022-08-31T21:10:36.160Z,12.07
2022-08-31T21:13:08.874Z,12.01
2022-08-31T21:15:40.182Z,11.97
2022-08-31T21:18:06.867Z,11.97
2022-08-31T21:20:35.410Z,12.01
2022-08-31T21:23:02.092Z,12.03
2022-08-31T21:25:32.125Z,12.02
2022-08-31T21:28:00.069Z,12.05
2022-08-31T21:30:26.859Z,12.07
2022-08-31T21:32:53.502Z,12.05
2022-08-31T21:35:20.273Z,12.04
2022-08-31T21:37:46.983Z,12.04
2022-08-31T21:40:13.758Z,12.07
2022-08-31T21:42:40.574Z,12.06
2022-08-31T21:45:10.831Z,11.99
2022-08-31T21:47:37.506Z,11.95
2022-08-31T21:50:07.142Z,11.88
2022-08-31T21:52:33.954Z,11.78
2022-08-31T21:55:05.569Z,11.70
2022-08-31T21:57:32.335Z,11.62
2022-08-31T21:59:59.649Z,11.55
2022-08-31T22:02:26.389Z,11.53
2022-08-31T22:04:55.499Z,11.50
2022-08-31T22:07:22.165Z,11.48
2022-08-31T22:09:49.063Z,11.42
2022-08-31T22:12:18.064Z,11.35
2022-08-31T22:14:44.823Z,11.32
2022-08-31T22:17:11.506Z,11.31
2022-08-31T22:19:39.366Z,11.27
2022-08-31T22:22:11.752Z,11.24
2022-08-31T22:24:39.768Z,11.22
2022-08-31T22:27:09.234Z,11.24
2022-08-31T22:29:37.872Z,11.25
2022-08-31T22:32:12.109Z,11.22
2022-08-31T22:34:40.259Z,11.18
2022-08-31T22:37:13.993Z,11.18
2022-08-31T22:39:42.546Z,11.21
2022-08-31T22:42:09.807Z,11.23
2022-08-31T22:44:39.365Z,11.22
2022-08-31T22:47:06.285Z,11.21
2022-08-31T22:49:32.985Z,11.19
2022-08-31T22:51:59.710Z,11.18
2022-08-31T22:54:26.852Z,11.14
2022-08-31T22:56:53.846Z,11.11
2022-08-31T22:59:27.427Z,11.07
2022-08-31T23:02:03.598Z,11.02
2022-08-31T23:04:34.344Z,10.96
2022-08-31T23:07:03.745Z,10.93
2022-08-31T23:09:34.327Z,10.94
2022-08-31T23:12:04.683Z,10.93
2022-08-31T23:14:32.780Z,10.93
2022-08-31T23:17:01.732Z,10.91
2022-08-31T23:19:36.961Z,10.89
2022-08-31T23:22:09.398Z,10.83
2022-08-31T23:24:40.803Z,10.77
2022-08-31T23:27:10.378Z,10.72
2022-08-31T23:29:40.340Z,10.75
2022-08-31T23:32:13.442Z,10.73
2022-08-31T23:34:41.826Z,10.77
2022-08-31T23:37:09.912Z,10.81
2022-08-31T23:39:39.623Z,10.83
2022-08-31T23:42:07.155Z,10.84
2022-08-31T23:44:36.194Z,10.84
2022-08-31T23:47:03.935Z,10.84
2022-08-31T23:49:30.655Z,10.86
2022-08-31T23:51:57.335Z,10.84
2022-08-31T23:54:29.665Z,10.86
2022-08-31T23:56:59.133Z,10.88
2022-08-31T23:59:25.869Z,10.89
